Terminal Aerodrome Forecast
Issued by NWS

Home | Current Version | Previous Version | Text Only | Print | Product List | Glossary On
Versions: 1 2 3 4 5 6 7 8 9 10 11 12 13 14 15
000
FTUS45 KREV 212300
TAFMMH
TAF
KMMH 212335Z 2200/2224 29010G18KT P6SM SCT090 BKN200
     FM220300 VRB03KT P6SM BKN180
     FM222000 20010KT P6SM SCT120 OVC180
      AMD NOT SKED 2202/2214=

USA.gov is the U.S. government's official web portal to all federal, state and local government web resources and services.